createdAt,value
2022-08-03T00:03:39.236Z,25.63
2022-08-03T00:08:46.626Z,25.59
2022-08-03T00:13:53.491Z,25.52
2022-08-03T00:19:01.077Z,25.41
2022-08-03T00:24:08.541Z,25.28
2022-08-03T00:29:15.054Z,25.16
2022-08-03T00:34:36.711Z,25.11
2022-08-03T00:39:29.123Z,25.12
2022-08-03T00:44:36.413Z,25.17
2022-08-03T00:49:43.366Z,25.24
2022-08-03T00:54:51.205Z,25.28
2022-08-03T00:59:57.530Z,25.29
2022-08-03T01:05:05.997Z,25.27
2022-08-03T01:10:11.786Z,25.23
2022-08-03T01:15:18.768Z,25.18
2022-08-03T01:20:26.101Z,25.13
2022-08-03T01:25:32.913Z,25.09
2022-08-03T01:30:40.153Z,25.06
2022-08-03T01:35:47.529Z,25.06
2022-08-03T01:40:54.476Z,25.07
2022-08-03T01:46:01.591Z,25.10
2022-08-03T01:51:08.485Z,25.08
2022-08-03T01:56:15.801Z,25.04
2022-08-03T02:01:22.981Z,25.03
2022-08-03T02:07:01.651Z,25.05
2022-08-03T02:11:37.022Z,25.08
2022-08-03T02:16:44.399Z,25.10
2022-08-03T02:26:58.628Z,25.12
2022-08-03T02:32:05.449Z,25.13
2022-08-03T02:37:12.922Z,25.13
2022-08-03T02:42:19.993Z,25.13
2022-08-03T02:47:26.601Z,25.12
2022-08-03T02:52:34.035Z,25.09
2022-08-03T02:57:40.930Z,25.06
2022-08-03T03:02:48.348Z,25.02
2022-08-03T03:07:55.427Z,24.99
2022-08-03T03:13:02.357Z,24.96
2022-08-03T03:18:09.696Z,24.91
2022-08-03T03:23:16.580Z,24.87
2022-08-03T03:28:23.486Z,24.84
2022-08-03T03:33:30.921Z,24.81
2022-08-03T03:38:37.825Z,24.78
2022-08-03T03:43:45.141Z,24.73
2022-08-03T03:48:52.033Z,24.67
2022-08-03T03:54:00.597Z,24.62
2022-08-03T03:59:06.443Z,24.58
2022-08-03T04:04:13.541Z,24.61
2022-08-03T04:09:20.424Z,24.70
2022-08-03T04:14:27.846Z,24.89
2022-08-03T04:19:34.659Z,25.20
2022-08-03T04:24:42.077Z,25.64
2022-08-03T04:29:49.070Z,26.15
2022-08-03T04:34:56.085Z,26.60
2022-08-03T04:40:03.517Z,27.07
2022-08-03T04:45:10.311Z,27.56
2022-08-03T04:50:21.346Z,28.04
2022-08-03T04:55:24.363Z,28.40
2022-08-03T05:00:31.816Z,28.52
2022-08-03T05:05:49.670Z,28.90
2022-08-03T05:10:45.896Z,29.43
2022-08-03T05:15:53.321Z,30.03
2022-08-03T05:21:00.082Z,30.74
2022-08-03T05:26:07.358Z,31.37
2022-08-03T05:31:14.164Z,32.02
2022-08-03T05:36:21.358Z,32.69
2022-08-03T05:41:37.181Z,33.23
2022-08-03T05:46:36.001Z,33.74
2022-08-03T05:51:42.769Z,34.38
2022-08-03T05:56:50.191Z,35.02
2022-08-03T06:01:57.088Z,35.63
2022-08-03T06:07:04.603Z,36.19
2022-08-03T06:12:14.216Z,36.82
2022-08-03T06:17:18.805Z,37.32
2022-08-03T06:22:25.589Z,37.83
2022-08-03T06:27:36.595Z,38.28
2022-08-03T06:32:40.348Z,38.97
2022-08-03T06:37:47.068Z,39.58
2022-08-03T06:42:54.404Z,40.23
2022-08-03T06:53:08.566Z,41.09
2022-08-03T06:58:15.902Z,41.14
2022-08-03T07:03:22.708Z,41.11
2022-08-03T07:08:34.138Z,41.45
2022-08-03T07:13:37.036Z,42.15
2022-08-03T07:18:44.384Z,42.61
2022-08-03T07:23:51.853Z,42.50
2022-08-03T07:28:59.712Z,42.64
2022-08-03T07:34:06.285Z,43.39
2022-08-03T07:39:15.358Z,44.24
2022-08-03T07:44:20.206Z,44.77
2022-08-03T07:49:27.536Z,45.00
2022-08-03T07:54:34.557Z,44.55
2022-08-03T07:59:57.224Z,44.61
2022-08-03T08:04:49.200Z,45.01
2022-08-03T08:09:55.981Z,45.05
2022-08-03T08:20:10.156Z,45.38
2022-08-03T08:25:17.502Z,45.78
2022-08-03T08:30:24.422Z,45.97
2022-08-03T08:35:31.858Z,46.33
2022-08-03T08:40:39.229Z,46.57
2022-08-03T08:45:46.046Z,47.15
2022-08-03T08:50:53.427Z,47.81
2022-08-03T08:56:00.879Z,48.24
2022-08-03T09:01:07.749Z,48.67
2022-08-03T09:06:14.584Z,48.51
2022-08-03T09:11:22.195Z,48.06
2022-08-03T09:16:29.360Z,48.02
2022-08-03T09:21:36.193Z,48.15
2022-08-03T09:26:43.627Z,47.63
2022-08-03T09:31:50.405Z,47.94
2022-08-03T09:36:57.764Z,48.54
2022-08-03T09:42:05.193Z,48.67
2022-08-03T09:47:12.190Z,48.84
2022-08-03T09:52:38.475Z,49.16
2022-08-03T09:57:26.498Z,49.41
2022-08-03T10:02:34.973Z,49.26
2022-08-03T10:07:46.005Z,48.46
2022-08-03T10:17:55.291Z,48.69
2022-08-03T10:23:02.264Z,49.09
2022-08-03T10:28:09.778Z,49.16
2022-08-03T10:33:51.967Z,48.99
2022-08-03T10:38:23.776Z,49.04
2022-08-03T10:43:31.127Z,49.23
2022-08-03T10:48:38.067Z,48.75
2022-08-03T10:53:54.229Z,48.36
2022-08-03T10:58:57.686Z,48.44
2022-08-03T11:03:59.780Z,48.91
2022-08-03T11:09:06.735Z,48.96
2022-08-03T11:14:14.308Z,48.61
2022-08-03T11:19:21.367Z,48.50
2022-08-03T11:24:28.761Z,48.54
2022-08-03T11:29:36.190Z,49.12
2022-08-03T11:34:42.693Z,49.26
2022-08-03T11:39:50.131Z,49.56
2022-08-03T11:44:57.115Z,49.55
2022-08-03T11:50:04.208Z,49.28
2022-08-03T11:55:11.670Z,49.23
2022-08-03T12:00:18.585Z,49.57
2022-08-03T12:05:26.166Z,49.69
2022-08-03T12:10:33.208Z,49.61
2022-08-03T12:15:40.180Z,49.62
2022-08-03T12:20:47.752Z,49.98
2022-08-03T12:25:54.707Z,49.93
2022-08-03T12:31:01.670Z,49.99
2022-08-03T12:36:09.062Z,49.65
2022-08-03T12:41:16.023Z,49.09
2022-08-03T12:46:23.402Z,48.06
2022-08-03T12:51:30.402Z,47.47
2022-08-03T12:56:38.353Z,47.57
2022-08-03T13:01:55.363Z,47.91
2022-08-03T13:06:51.719Z,48.41
2022-08-03T13:12:02.608Z,48.46
2022-08-03T13:17:07.231Z,48.16
2022-08-03T13:22:14.682Z,48.03
2022-08-03T13:28:00.054Z,48.18
2022-08-03T13:32:27.788Z,47.94
2022-08-03T13:37:34.712Z,47.40
2022-08-03T13:42:42.173Z,47.27
2022-08-03T13:47:49.080Z,47.19
2022-08-03T13:52:56.463Z,46.84
2022-08-03T13:58:07.222Z,46.81
2022-08-03T14:03:13.894Z,46.98
2022-08-03T14:08:18.117Z,47.12
2022-08-03T14:13:25.027Z,47.32
2022-08-03T14:18:34.031Z,47.44
2022-08-03T14:23:39.727Z,47.33
2022-08-03T14:28:47.976Z,47.32
2022-08-03T14:33:54.000Z,47.14
2022-08-03T14:39:01.591Z,46.84
2022-08-03T14:44:08.075Z,45.97
2022-08-03T14:50:36.927Z,45.30
2022-08-03T14:54:22.702Z,44.77
2022-08-03T14:59:29.643Z,44.08
2022-08-03T15:09:44.151Z,43.05
2022-08-03T15:14:51.046Z,42.56
2022-08-03T15:20:03.568Z,42.13
2022-08-03T15:26:04.088Z,41.86
2022-08-03T15:30:12.692Z,41.65
2022-08-03T15:35:19.526Z,41.50
2022-08-03T15:40:26.922Z,41.35
2022-08-03T15:45:35.468Z,41.12
2022-08-03T15:50:41.218Z,40.79
2022-08-03T15:55:48.105Z,40.39
2022-08-03T16:00:55.619Z,40.06
2022-08-03T16:06:02.522Z,39.79
2022-08-03T16:11:09.921Z,39.65
2022-08-03T16:16:17.034Z,39.59
2022-08-03T16:21:23.920Z,39.53
2022-08-03T16:26:31.827Z,39.47
2022-08-03T16:31:38.381Z,39.42
2022-08-03T16:36:45.517Z,39.35
2022-08-03T16:41:53.495Z,39.28
2022-08-03T16:46:59.618Z,39.15
2022-08-03T16:52:07.243Z,38.97
2022-08-03T16:57:14.047Z,38.83
2022-08-03T17:02:21.376Z,38.73
2022-08-03T17:07:29.541Z,38.62
2022-08-03T17:12:35.343Z,38.46
2022-08-03T17:17:53.362Z,38.34
2022-08-03T17:22:49.820Z,38.19
2022-08-03T17:28:51.422Z,37.99
2022-08-03T17:33:04.203Z,37.76
2022-08-03T17:38:15.040Z,37.53
2022-08-03T17:44:13.476Z,37.33
2022-08-03T17:48:25.782Z,37.15
2022-08-03T17:53:32.868Z,36.98
2022-08-03T17:58:41.316Z,36.83
2022-08-03T18:03:58.051Z,36.71
2022-08-03T18:08:53.959Z,36.59
2022-08-03T18:14:00.845Z,36.45
2022-08-03T18:19:09.645Z,36.27
2022-08-03T18:24:15.423Z,36.07
2022-08-03T18:29:22.590Z,35.84
2022-08-03T18:34:32.820Z,35.60
2022-08-03T18:39:49.661Z,35.36
2022-08-03T18:44:54.410Z,35.15
2022-08-03T18:49:51.162Z,34.95
2022-08-03T18:55:02.354Z,34.76
2022-08-03T19:00:05.105Z,34.59
2022-08-03T19:05:12.612Z,34.41
2022-08-03T19:10:19.520Z,34.21
2022-08-03T19:15:36.803Z,33.99
2022-08-03T19:20:33.898Z,33.74
2022-08-03T19:25:41.469Z,33.50
2022-08-03T19:30:53.746Z,33.28
2022-08-03T19:35:57.321Z,33.08
2022-08-03T19:41:02.665Z,32.88
2022-08-03T19:46:09.527Z,32.69
2022-08-03T19:51:16.409Z,32.52
2022-08-03T19:56:23.772Z,32.37
2022-08-03T20:01:30.827Z,32.20
2022-08-03T20:06:37.671Z,32.06
2022-08-03T20:11:45.373Z,31.93
2022-08-03T20:16:52.131Z,31.79
2022-08-03T20:21:59.064Z,31.61
2022-08-03T20:27:07.941Z,31.46
2022-08-03T20:32:13.335Z,31.35
2022-08-03T20:37:20.921Z,31.23
2022-08-03T20:42:27.700Z,31.08
2022-08-03T20:47:35.687Z,30.95
2022-08-03T20:52:43.936Z,30.82
2022-08-03T20:57:51.806Z,30.70
2022-08-03T21:02:56.232Z,30.55
2022-08-03T21:08:06.446Z,30.42
2022-08-03T21:13:17.564Z,30.28
2022-08-03T21:18:17.622Z,30.20
2022-08-03T21:23:39.886Z,30.13
2022-08-03T21:28:32.002Z,30.07
2022-08-03T21:33:38.990Z,30.00
2022-08-03T21:38:47.439Z,29.95
2022-08-03T21:43:53.462Z,29.89
2022-08-03T21:50:07.622Z,29.84
2022-08-03T21:54:07.502Z,29.80
2022-08-03T21:59:14.446Z,29.76
2022-08-03T22:04:38.060Z,29.70
2022-08-03T22:09:28.787Z,29.62
2022-08-03T22:14:35.765Z,29.55
2022-08-03T22:19:43.206Z,29.48
2022-08-03T22:24:50.077Z,29.37
2022-08-03T22:29:56.935Z,29.26
2022-08-03T22:35:04.375Z,29.12
2022-08-03T22:40:11.236Z,28.97
2022-08-03T22:46:06.206Z,28.83
2022-08-03T22:50:32.293Z,28.72
2022-08-03T22:55:32.615Z,28.61
2022-08-03T23:00:40.096Z,28.51
2022-08-03T23:06:01.021Z,28.40
2022-08-03T23:10:54.005Z,28.32
2022-08-03T23:16:00.875Z,28.23
2022-08-03T23:21:11.109Z,28.13
2022-08-03T23:26:15.388Z,28.03
2022-08-03T23:31:22.218Z,27.99
2022-08-03T23:36:31.841Z,27.97
2022-08-03T23:41:36.606Z,28.00
2022-08-03T23:46:44.208Z,27.99
2022-08-03T23:51:51.106Z,27.98
2022-08-03T23:56:58.153Z,27.97
